createdAt,value
2018-06-11T00:01:10.546Z,100623.48
2018-06-11T00:03:38.362Z,100625.11
2018-06-11T00:06:05.381Z,100623.45
2018-06-11T00:08:32.423Z,100614.44
2018-06-11T00:10:59.466Z,100616.73
2018-06-11T00:13:26.476Z,100620.36
2018-06-11T00:15:53.600Z,100622.23
2018-06-11T00:18:20.597Z,100621.25
2018-06-11T00:20:47.721Z,100624.13
2018-06-11T00:23:14.712Z,100620.56
2018-06-11T00:25:41.801Z,100623.63
2018-06-11T00:28:09.115Z,100621.48
2018-06-11T00:30:36.109Z,100623.33
2018-06-11T00:33:03.105Z,100626.66
2018-06-11T00:35:30.115Z,100632.86
2018-06-11T00:37:57.137Z,100636.82
2018-06-11T00:40:24.261Z,100634.88
2018-06-11T00:42:51.352Z,100634.29
2018-06-11T00:45:18.441Z,100634.16
2018-06-11T00:47:46.264Z,100630.85
2018-06-11T00:50:13.423Z,100628.78
2018-06-11T00:52:40.521Z,100627.33
2018-06-11T00:55:07.524Z,100626.13
2018-06-11T00:57:34.524Z,100632.81
2018-06-11T01:00:01.572Z,100634.77
2018-06-11T01:02:28.573Z,100629.30
2018-06-11T01:04:55.574Z,100632.29
2018-06-11T01:07:24.181Z,100636.61
2018-06-11T01:09:51.285Z,100621.18
2018-06-11T01:12:18.297Z,100625.47
2018-06-11T01:14:45.389Z,100624.92
2018-06-11T01:17:12.410Z,100625.97
2018-06-11T01:19:39.429Z,100622.75
2018-06-11T01:22:06.449Z,100629.25
2018-06-11T01:24:33.467Z,100624.20
2018-06-11T01:27:00.590Z,100623.98
2018-06-11T01:29:27.609Z,100626.27
2018-06-11T01:31:54.614Z,100616.40
2018-06-11T01:34:21.642Z,100618.42
2018-06-11T01:36:48.760Z,100622.98
2018-06-11T01:39:15.810Z,100627.72
2018-06-11T01:41:43.113Z,100626.27
2018-06-11T01:44:10.134Z,100626.32
2018-06-11T01:46:37.149Z,100624.84
2018-06-11T01:49:04.587Z,100622.48
2018-06-11T01:51:31.644Z,100619.73
2018-06-11T01:53:58.813Z,100621.94
2018-06-11T01:56:25.853Z,100623.12
2018-06-11T01:58:52.899Z,100620.72
2018-06-11T02:01:19.915Z,100619.73
2018-06-11T02:03:47.099Z,100619.19
2018-06-11T02:06:14.118Z,100615.27
2018-06-11T02:08:41.132Z,100604.16
2018-06-11T02:11:08.329Z,100610.43
2018-06-11T02:13:35.355Z,100598.43
2018-06-11T02:16:02.487Z,100596.30
2018-06-11T02:18:29.538Z,100592.64
2018-06-11T02:20:56.546Z,100588.85
2018-06-11T02:23:23.645Z,100588.45
2018-06-11T02:25:50.754Z,100591.23
2018-06-11T02:28:17.781Z,100595.08
2018-06-11T02:30:44.893Z,100595.30
2018-06-11T02:33:11.917Z,100593.25
2018-06-11T02:35:38.943Z,100593.59
2018-06-11T02:38:05.996Z,100596.96
2018-06-11T02:40:33.002Z,100597.00
2018-06-11T02:43:00.468Z,100595.05
2018-06-11T02:45:27.585Z,100588.60
2018-06-11T02:47:54.677Z,100595.25
2018-06-11T02:50:21.707Z,100600.53
2018-06-11T02:52:48.762Z,100602.36
2018-06-11T02:55:15.879Z,100612.34
2018-06-11T02:57:42.905Z,100608.58
2018-06-11T03:00:09.943Z,100618.67
2018-06-11T03:02:37.033Z,100622.47
2018-06-11T03:05:04.375Z,100621.90
2018-06-11T03:07:31.705Z,100618.22
2018-06-11T03:09:58.743Z,100617.72
2018-06-11T03:12:25.850Z,100620.05
2018-06-11T03:14:52.865Z,100615.11
2018-06-11T03:17:20.022Z,100620.63
2018-06-11T03:19:47.037Z,100622.14
2018-06-11T03:22:14.157Z,100616.37
2018-06-11T03:24:41.282Z,100611.41
2018-06-11T03:27:08.394Z,100613.61
2018-06-11T03:29:35.565Z,100615.86
2018-06-11T03:32:02.872Z,100620.19
2018-06-11T03:34:30.137Z,100623.98
2018-06-11T03:36:57.316Z,100619.69
2018-06-11T03:39:24.402Z,100629.73
2018-06-11T03:41:51.422Z,100632.33
2018-06-11T03:44:18.445Z,100635.88
2018-06-11T03:46:45.471Z,100631.95
2018-06-11T03:49:12.564Z,100630.61
2018-06-11T03:51:39.884Z,100640.06
2018-06-11T03:54:06.889Z,100637.39
2018-06-11T03:56:33.946Z,100633.84
2018-06-11T03:59:01.156Z,100638.55
2018-06-11T04:01:28.270Z,100638.38
2018-06-11T04:03:56.743Z,100633.55
2018-06-11T04:06:24.064Z,100633.11
2018-06-11T04:08:51.114Z,100635.05
2018-06-11T04:11:18.360Z,100632.89
2018-06-11T04:13:46.769Z,100631.30
2018-06-11T04:16:18.282Z,100633.02
2018-06-11T04:18:45.720Z,100638.08
2018-06-11T04:21:12.720Z,100639.54
2018-06-11T04:23:39.714Z,100633.52
2018-06-11T04:26:06.815Z,100640.88
2018-06-11T04:28:33.910Z,100639.09
2018-06-11T04:31:01.010Z,100642.62
2018-06-11T04:33:28.061Z,100632.45
2018-06-11T04:35:55.187Z,100634.53
2018-06-11T04:38:22.384Z,100629.81
2018-06-11T04:40:49.531Z,100624.88
2018-06-11T04:43:16.577Z,100618.92
2018-06-11T04:45:43.661Z,100612.02
2018-06-11T04:48:10.768Z,100619.94
2018-06-11T04:50:37.885Z,100621.45
2018-06-11T04:53:04.917Z,100619.20
2018-06-11T04:55:31.974Z,100626.59
2018-06-11T04:57:59.360Z,100625.00
2018-06-11T05:00:26.573Z,100622.59
2018-06-11T05:02:53.585Z,100626.59
2018-06-11T05:05:20.916Z,100624.02
2018-06-11T05:07:47.926Z,100628.06
2018-06-11T05:10:14.949Z,100625.66
2018-06-11T05:12:42.062Z,100630.89
2018-06-11T05:15:09.088Z,100633.83
2018-06-11T05:17:36.178Z,100633.05
2018-06-11T05:20:03.242Z,100642.98
2018-06-11T05:22:30.262Z,100634.69
2018-06-11T05:24:57.274Z,100635.83
2018-06-11T05:27:24.383Z,100637.05
2018-06-11T05:29:51.418Z,100637.70
2018-06-11T05:32:18.522Z,100641.74
2018-06-11T05:34:45.645Z,100645.17
2018-06-11T05:37:12.680Z,100639.88
2018-06-11T05:39:39.690Z,100647.06
2018-06-11T05:42:06.729Z,100651.64
2018-06-11T05:44:33.982Z,100658.66
2018-06-11T05:47:01.527Z,100661.77
2018-06-11T05:49:28.566Z,100659.77
2018-06-11T05:51:55.601Z,100671.61
2018-06-11T05:54:22.745Z,100672.30
2018-06-11T05:56:49.773Z,100669.48
2018-06-11T05:59:16.829Z,100686.73
2018-06-11T06:01:43.998Z,100680.77
2018-06-11T06:04:11.098Z,100683.99
2018-06-11T06:06:38.161Z,100686.98
2018-06-11T06:09:06.299Z,100692.73
2018-06-11T06:11:33.453Z,100687.55
2018-06-11T06:14:00.487Z,100694.70
2018-06-11T06:16:27.498Z,100692.16
2018-06-11T06:18:54.538Z,100696.30
2018-06-11T06:21:21.937Z,100703.36
2018-06-11T06:23:49.041Z,100707.82
2018-06-11T06:26:16.063Z,100707.25
2018-06-11T06:28:43.166Z,100711.91
2018-06-11T06:31:10.262Z,100714.23
2018-06-11T06:33:37.285Z,100694.86
2018-06-11T06:36:04.414Z,100697.40
2018-06-11T06:38:31.504Z,100696.25
2018-06-11T06:40:58.546Z,100692.65
2018-06-11T06:43:25.766Z,100691.86
2018-06-11T06:45:52.777Z,100697.47
2018-06-11T06:48:19.793Z,100690.69
2018-06-11T06:50:46.823Z,100688.56
2018-06-11T06:53:13.855Z,100685.27
2018-06-11T06:55:40.951Z,100683.19
2018-06-11T06:58:07.988Z,100677.14
2018-06-11T07:00:35.106Z,100676.18
2018-06-11T07:03:02.149Z,100671.33
2018-06-11T07:05:29.253Z,100676.00
2018-06-11T07:07:56.473Z,100676.43
2018-06-11T07:10:23.584Z,100680.28
2018-06-11T07:12:50.698Z,100677.41
2018-06-11T07:15:18.760Z,100685.48
2018-06-11T07:17:45.825Z,100680.14
2018-06-11T07:20:13.012Z,100686.98
2018-06-11T07:22:40.109Z,100684.83
2018-06-11T07:25:07.231Z,100686.81
2018-06-11T07:27:34.334Z,100687.70
2018-06-11T07:30:01.465Z,100683.70
2018-06-11T07:32:28.618Z,100690.81
2018-06-11T07:34:55.756Z,100690.45
2018-06-11T07:37:22.781Z,100684.31
2018-06-11T07:39:49.882Z,100688.64
2018-06-11T07:42:17.074Z,100691.28
2018-06-11T07:44:44.187Z,100685.73
2018-06-11T07:47:11.215Z,100691.94
2018-06-11T07:49:38.317Z,100684.25
2018-06-11T07:52:05.469Z,100690.64
2018-06-11T07:54:32.576Z,100686.72
2018-06-11T07:56:59.669Z,100684.91
2018-06-11T07:59:26.698Z,100680.95
2018-06-11T08:01:53.789Z,100682.88
2018-06-11T08:04:20.818Z,100690.29
2018-06-11T08:06:47.842Z,100687.79
2018-06-11T08:09:14.878Z,100681.23
2018-06-11T08:11:41.954Z,100680.36
2018-06-11T08:14:09.087Z,100681.01
2018-06-11T08:16:36.241Z,100676.03
2018-06-11T08:19:03.341Z,100676.47
2018-06-11T08:21:30.347Z,100678.25
2018-06-11T08:23:57.448Z,100680.19
2018-06-11T08:26:24.477Z,100681.01
2018-06-11T08:28:51.509Z,100681.32
2018-06-11T08:31:18.606Z,100679.55
2018-06-11T08:33:45.645Z,100688.45
2018-06-11T08:36:12.690Z,100682.92
2018-06-11T08:38:39.729Z,100688.39
2018-06-11T08:41:06.752Z,100687.56
2018-06-11T08:43:33.821Z,100686.70
2018-06-11T08:46:00.918Z,100684.30
2018-06-11T08:48:27.947Z,100685.59
2018-06-11T08:50:54.990Z,100683.20
2018-06-11T08:53:22.013Z,100684.45
2018-06-11T08:55:49.128Z,100674.89
2018-06-11T08:58:16.434Z,100678.58
2018-06-11T09:00:43.466Z,100684.71
2018-06-11T09:03:10.495Z,100674.98
2018-06-11T09:05:37.662Z,100685.63
2018-06-11T09:08:04.707Z,100689.94
2018-06-11T09:10:31.726Z,100679.27
2018-06-11T09:12:58.740Z,100681.72
2018-06-11T09:15:25.771Z,100672.38
2018-06-11T09:17:52.848Z,100671.86
2018-06-11T09:20:19.913Z,100676.45
2018-06-11T09:22:47.038Z,100672.93
2018-06-11T09:25:14.071Z,100679.48
2018-06-11T09:27:41.086Z,100681.28
2018-06-11T09:30:08.151Z,100673.61
2018-06-11T09:32:35.207Z,100690.20
2018-06-11T09:35:02.247Z,100689.18
2018-06-11T09:37:29.462Z,100680.91
2018-06-11T09:39:56.497Z,100675.89
2018-06-11T09:42:23.521Z,100687.53
2018-06-11T09:44:50.837Z,100679.66
2018-06-11T09:47:17.855Z,100685.38
2018-06-11T09:49:44.947Z,100690.43
2018-06-11T09:52:11.993Z,100692.08
2018-06-11T09:54:39.033Z,100691.59
2018-06-11T09:57:06.141Z,100684.05
2018-06-11T09:59:33.168Z,100689.84
2018-06-11T10:02:00.284Z,100685.92
2018-06-11T10:04:27.341Z,100684.39
2018-06-11T10:06:54.463Z,100676.39
2018-06-11T10:09:21.545Z,100684.31
2018-06-11T10:11:48.570Z,100685.94
2018-06-11T10:14:15.589Z,100681.95
2018-06-11T10:16:42.693Z,100684.47
2018-06-11T10:19:09.755Z,100687.56
2018-06-11T10:21:36.743Z,100684.61
2018-06-11T10:24:03.781Z,100684.98
2018-06-11T10:26:30.877Z,100683.81
2018-06-11T10:28:57.990Z,100699.42
2018-06-11T10:31:25.008Z,100693.74
2018-06-11T10:33:52.017Z,100701.91
2018-06-11T10:36:19.030Z,100695.54
2018-06-11T10:38:46.145Z,100697.20
2018-06-11T10:41:13.208Z,100705.80
2018-06-11T10:43:40.309Z,100697.31
2018-06-11T10:46:07.314Z,100701.54
2018-06-11T10:48:34.417Z,100702.16
2018-06-11T10:51:01.422Z,100717.03
2018-06-11T10:53:28.449Z,100702.00
2018-06-11T10:55:55.445Z,100710.32
2018-06-11T10:58:22.479Z,100716.75
2018-06-11T11:00:49.513Z,100724.67
2018-06-11T11:03:16.505Z,100720.84
2018-06-11T11:05:43.519Z,100722.93
2018-06-11T11:08:10.549Z,100718.77
2018-06-11T11:10:37.574Z,100713.86
2018-06-11T11:13:04.667Z,100716.17
2018-06-11T11:15:31.641Z,100712.09
2018-06-11T11:17:58.778Z,100716.88
2018-06-11T11:20:25.814Z,100720.75
2018-06-11T11:22:52.925Z,100708.47
2018-06-11T11:25:19.954Z,100715.23
2018-06-11T11:27:46.967Z,100697.87
2018-06-11T11:30:13.995Z,100709.43
2018-06-11T11:32:41.012Z,100711.06
2018-06-11T11:35:08.105Z,100708.02
2018-06-11T11:37:35.514Z,100711.80
2018-06-11T11:40:02.653Z,100709.35
2018-06-11T11:42:29.819Z,100700.92
2018-06-11T11:44:56.874Z,100688.37
2018-06-11T11:47:23.879Z,100688.88
2018-06-11T11:49:50.885Z,100684.03
2018-06-11T11:52:17.925Z,100683.09
2018-06-11T11:54:45.026Z,100693.81
2018-06-11T11:57:12.041Z,100691.56
2018-06-11T11:59:39.091Z,100690.78
2018-06-11T12:02:06.194Z,100678.31
2018-06-11T12:04:33.290Z,100687.23
2018-06-11T12:07:00.320Z,100684.37
2018-06-11T12:09:27.421Z,100676.12
2018-06-11T12:11:54.470Z,100661.02
2018-06-11T12:14:21.489Z,100679.60
2018-06-11T12:16:48.515Z,100667.55
2018-06-11T12:19:15.635Z,100669.75
2018-06-11T12:21:42.653Z,100674.41
2018-06-11T12:24:09.696Z,100671.16
2018-06-11T12:26:36.822Z,100657.97
2018-06-11T12:29:03.928Z,100670.03
2018-06-11T12:31:30.928Z,100664.93
2018-06-11T12:33:57.957Z,100672.98
2018-06-11T12:36:25.041Z,100668.61
2018-06-11T12:38:52.086Z,100661.31
2018-06-11T12:41:19.206Z,100667.45
2018-06-11T12:43:46.226Z,100666.17
2018-06-11T12:46:13.250Z,100671.17
2018-06-11T12:48:40.350Z,100664.98
2018-06-11T12:51:07.547Z,100660.03
2018-06-11T12:53:34.970Z,100665.05
2018-06-11T12:56:02.461Z,100655.65
2018-06-11T12:58:29.485Z,100654.88
2018-06-11T13:00:56.504Z,100651.36
2018-06-11T13:03:23.521Z,100650.03
2018-06-11T13:05:50.653Z,100651.56
2018-06-11T13:08:17.887Z,100649.07
2018-06-11T13:10:44.962Z,100655.20
2018-06-11T13:13:12.093Z,100644.86
2018-06-11T13:15:39.110Z,100644.53
2018-06-11T13:18:06.207Z,100635.34
2018-06-11T13:20:33.508Z,100639.75
2018-06-11T13:23:00.703Z,100636.34
2018-06-11T13:25:27.791Z,100627.57
2018-06-11T13:27:54.898Z,100622.98
2018-06-11T13:30:21.938Z,100630.34
2018-06-11T13:32:48.951Z,100616.96
2018-06-11T13:35:16.014Z,100616.66
2018-06-11T13:37:43.042Z,100608.65
2018-06-11T13:40:10.086Z,100618.20
2018-06-11T13:42:37.105Z,100619.72
2018-06-11T13:45:04.526Z,100613.24
2018-06-11T13:47:31.735Z,100609.81
2018-06-11T13:49:58.837Z,100623.97
2018-06-11T13:52:25.985Z,100615.42
2018-06-11T13:54:53.333Z,100618.94
2018-06-11T13:57:20.345Z,100615.85
2018-06-11T13:59:47.358Z,100613.34
2018-06-11T14:02:14.563Z,100608.77
2018-06-11T14:04:41.586Z,100601.45
2018-06-11T14:07:08.747Z,100600.57
2018-06-11T14:09:35.851Z,100610.00
2018-06-11T14:12:02.985Z,100604.25
2018-06-11T14:14:29.998Z,100597.41
2018-06-11T14:16:57.012Z,100594.21
2018-06-11T14:19:24.043Z,100599.55
2018-06-11T14:21:51.143Z,100593.39
2018-06-11T14:24:18.140Z,100587.06
2018-06-11T14:26:45.218Z,100586.80
2018-06-11T14:29:12.329Z,100592.47
2018-06-11T14:31:39.446Z,100583.48
2018-06-11T14:34:06.502Z,100573.44
2018-06-11T14:36:33.521Z,100576.34
2018-06-11T14:39:00.725Z,100574.81
2018-06-11T14:41:27.739Z,100574.06
2018-06-11T14:43:54.837Z,100568.45
2018-06-11T14:46:21.942Z,100567.97
2018-06-11T14:48:48.961Z,100574.09
2018-06-11T14:51:16.073Z,100565.87
2018-06-11T14:53:43.086Z,100563.49
2018-06-11T14:56:10.107Z,100556.88
2018-06-11T14:58:37.577Z,100563.16
2018-06-11T15:01:04.610Z,100557.23
2018-06-11T15:03:31.711Z,100563.20
2018-06-11T15:05:58.756Z,100570.20
2018-06-11T15:08:25.863Z,100571.46
2018-06-11T15:10:52.880Z,100549.58
2018-06-11T15:15:54.182Z,100556.36
2018-06-11T15:18:21.276Z,100555.98
2018-06-11T15:20:48.301Z,100561.62
2018-06-11T15:23:15.322Z,100564.64
2018-06-11T15:25:42.352Z,100562.13
2018-06-11T15:28:09.365Z,100562.37
2018-06-11T15:30:36.554Z,100545.84
2018-06-11T15:33:03.926Z,100541.38
2018-06-11T15:35:30.929Z,100546.47
2018-06-11T15:37:57.947Z,100545.17
2018-06-11T15:40:25.070Z,100549.44
2018-06-11T15:42:52.173Z,100552.47
2018-06-11T15:45:19.216Z,100551.41
2018-06-11T15:47:46.237Z,100546.19
2018-06-11T15:50:13.295Z,100548.85
2018-06-11T15:52:40.329Z,100548.89
2018-06-11T15:55:07.356Z,100551.25
2018-06-11T15:57:34.542Z,100550.50
2018-06-11T16:00:01.618Z,100551.19
2018-06-11T16:02:28.645Z,100550.13
2018-06-11T16:04:55.667Z,100538.20
2018-06-11T16:07:22.707Z,100536.02
2018-06-11T16:09:49.733Z,100523.80
2018-06-11T16:14:50.786Z,100527.45
2018-06-11T16:17:17.818Z,100533.84
2018-06-11T16:19:44.828Z,100527.89
2018-06-11T16:22:11.873Z,100530.12
2018-06-11T16:24:39.133Z,100523.05
2018-06-11T16:27:06.183Z,100519.69
2018-06-11T16:29:33.204Z,100522.81
2018-06-11T16:32:00.301Z,100514.45
2018-06-11T16:34:27.326Z,100526.53
2018-06-11T16:36:54.518Z,100525.70
2018-06-11T16:39:21.613Z,100523.44
2018-06-11T16:41:48.655Z,100520.09
2018-06-11T16:44:15.675Z,100530.27
2018-06-11T16:46:42.766Z,100530.54
2018-06-11T16:49:09.870Z,100525.92
2018-06-11T16:51:36.895Z,100523.81
2018-06-11T16:54:04.099Z,100519.33
2018-06-11T16:56:31.105Z,100521.31
2018-06-11T16:58:58.109Z,100519.05
2018-06-11T17:01:25.141Z,100523.70
2018-06-11T17:03:52.229Z,100528.13
2018-06-11T17:06:19.243Z,100532.53
2018-06-11T17:08:46.256Z,100536.11
2018-06-11T17:11:13.361Z,100526.55
2018-06-11T17:13:40.390Z,100523.57
2018-06-11T17:16:07.505Z,100517.66
2018-06-11T17:18:34.520Z,100522.22
2018-06-11T17:21:01.554Z,100513.63
2018-06-11T17:23:28.582Z,100508.53
2018-06-11T17:25:55.621Z,100515.09
2018-06-11T17:28:22.637Z,100515.25
2018-06-11T17:30:49.672Z,100516.05
2018-06-11T17:33:16.947Z,100520.84
2018-06-11T17:35:44.030Z,100505.09
2018-06-11T17:38:11.058Z,100505.31
2018-06-11T17:40:38.194Z,100507.62
2018-06-11T17:43:05.237Z,100501.39
2018-06-11T17:45:32.862Z,100498.32
2018-06-11T17:47:59.956Z,100511.91
2018-06-11T17:50:27.063Z,100506.50
2018-06-11T17:52:54.196Z,100508.25
2018-06-11T17:55:21.285Z,100508.83
2018-06-11T17:57:48.471Z,100513.50
2018-06-11T18:00:15.449Z,100513.73
2018-06-11T18:02:42.477Z,100513.39
2018-06-11T18:05:09.594Z,100513.42
2018-06-11T18:07:36.705Z,100514.53
2018-06-11T18:10:03.760Z,100503.42
2018-06-11T18:12:30.939Z,100502.81
2018-06-11T18:14:58.142Z,100511.80
2018-06-11T18:17:25.258Z,100514.83
2018-06-11T18:19:52.453Z,100506.27
2018-06-11T18:22:19.453Z,100501.95
2018-06-11T18:24:46.485Z,100501.84
2018-06-11T18:27:13.518Z,100491.95
2018-06-11T18:29:40.541Z,100495.70
2018-06-11T18:32:07.553Z,100497.78
2018-06-11T18:34:34.699Z,100491.75
2018-06-11T18:37:01.721Z,100491.09
2018-06-11T18:39:28.825Z,100491.36
2018-06-11T18:41:56.112Z,100497.53
2018-06-11T18:44:23.073Z,100488.39
2018-06-11T18:46:50.369Z,100482.78
2018-06-11T18:49:17.390Z,100487.59
2018-06-11T18:51:44.414Z,100488.00
2018-06-11T18:54:11.569Z,100480.03
2018-06-11T18:56:38.573Z,100483.72
2018-06-11T18:59:05.654Z,100484.77
2018-06-11T19:01:32.690Z,100484.39
2018-06-11T19:03:59.796Z,100491.47
2018-06-11T19:06:26.889Z,100484.75
2018-06-11T19:08:53.901Z,100484.59
2018-06-11T19:11:21.016Z,100480.34
2018-06-11T19:13:48.126Z,100476.81
2018-06-11T19:16:15.228Z,100477.41
2018-06-11T19:18:42.262Z,100480.02
2018-06-11T19:21:09.273Z,100478.49
2018-06-11T19:23:36.288Z,100473.47
2018-06-11T19:26:03.346Z,100483.33
2018-06-11T19:28:30.404Z,100486.16
2018-06-11T19:30:57.526Z,100476.31
2018-06-11T19:33:24.548Z,100476.88
2018-06-11T19:35:51.677Z,100484.73
2018-06-11T19:38:18.790Z,100481.11
2018-06-11T19:40:45.924Z,100482.22
2018-06-11T19:43:13.027Z,100489.98
2018-06-11T19:45:40.114Z,100493.94
2018-06-11T19:48:07.125Z,100500.02
2018-06-11T19:50:34.169Z,100500.39
2018-06-11T19:53:01.322Z,100496.77
2018-06-11T19:55:35.367Z,100494.28
2018-06-11T19:58:02.569Z,100497.63
2018-06-11T20:00:29.680Z,100509.13
2018-06-11T20:02:56.726Z,100506.59
2018-06-11T20:05:24.050Z,100511.83
2018-06-11T20:07:51.181Z,100519.42
2018-06-11T20:10:18.297Z,100519.98
2018-06-11T20:12:45.315Z,100520.27
2018-06-11T20:15:12.335Z,100517.05
2018-06-11T20:17:39.349Z,100516.72
2018-06-11T20:20:06.372Z,100519.75
2018-06-11T20:22:33.490Z,100520.97
2018-06-11T20:25:00.582Z,100529.38
2018-06-11T20:27:27.708Z,100535.09
2018-06-11T20:29:54.746Z,100540.35
2018-06-11T20:32:21.888Z,100548.23
2018-06-11T20:34:48.926Z,100550.97
2018-06-11T20:37:16.062Z,100547.46
2018-06-11T20:39:43.706Z,100539.87
2018-06-11T20:42:10.921Z,100552.02
2018-06-11T20:44:38.188Z,100547.09
2018-06-11T20:47:05.637Z,100541.26
2018-06-11T20:49:32.656Z,100546.27
2018-06-11T20:51:59.665Z,100554.88
2018-06-11T20:54:26.971Z,100545.99
2018-06-11T20:56:54.899Z,100555.59
2018-06-11T20:59:22.637Z,100562.11
2018-06-11T21:01:50.244Z,100557.98
2018-06-11T21:04:17.558Z,100557.09
2018-06-11T21:06:44.575Z,100548.27
2018-06-11T21:09:11.849Z,100544.27
2018-06-11T21:11:38.881Z,100541.01
2018-06-11T21:14:05.916Z,100550.03
2018-06-11T21:16:33.034Z,100544.97
2018-06-11T21:19:01.291Z,100530.56
2018-06-11T21:21:28.534Z,100527.48
2018-06-11T21:23:56.147Z,100519.59
2018-06-11T21:26:24.532Z,100523.47
2018-06-11T21:28:51.576Z,100526.16
2018-06-11T21:31:18.684Z,100522.58
2018-06-11T21:33:45.699Z,100509.84
2018-06-11T21:36:12.869Z,100508.66
2018-06-11T21:38:39.882Z,100504.70
2018-06-11T21:41:10.741Z,100511.41
2018-06-11T21:43:37.944Z,100504.73
2018-06-11T21:46:05.048Z,100499.93
2018-06-11T21:48:32.180Z,100498.09
2018-06-11T21:50:59.227Z,100493.23
2018-06-11T21:53:26.373Z,100493.84
2018-06-11T21:55:53.387Z,100495.91
2018-06-11T21:58:20.495Z,100493.73
2018-06-11T22:00:47.570Z,100493.05
2018-06-11T22:03:14.655Z,100499.33
2018-06-11T22:05:41.669Z,100494.84
2018-06-11T22:08:08.800Z,100493.73
2018-06-11T22:10:35.819Z,100482.64
2018-06-11T22:13:02.980Z,100479.88
2018-06-11T22:15:30.031Z,100485.80
2018-06-11T22:17:57.037Z,100488.73
2018-06-11T22:20:24.054Z,100490.12
2018-06-11T22:22:51.197Z,100486.17
2018-06-11T22:25:24.966Z,100475.94
2018-06-11T22:27:52.011Z,100481.50
2018-06-11T22:30:19.095Z,100486.30
2018-06-11T22:32:46.206Z,100498.80
2018-06-11T22:35:13.231Z,100499.24
2018-06-11T22:37:40.242Z,100497.58
2018-06-11T22:40:07.287Z,100497.82
2018-06-11T22:42:34.397Z,100494.30
2018-06-11T22:45:01.428Z,100506.95
2018-06-11T22:47:28.656Z,100498.92
2018-06-11T22:49:55.742Z,100494.81
2018-06-11T22:52:22.793Z,100494.46
2018-06-11T22:54:49.899Z,100499.64
2018-06-11T22:57:23.803Z,100496.85
2018-06-11T22:59:50.992Z,100504.83
2018-06-11T23:02:18.014Z,100501.45
2018-06-11T23:04:45.039Z,100508.76
2018-06-11T23:07:12.148Z,100501.99
2018-06-11T23:09:39.285Z,100494.87
2018-06-11T23:12:06.312Z,100498.20
2018-06-11T23:14:33.320Z,100498.20
2018-06-11T23:17:00.321Z,100492.61
2018-06-11T23:19:27.474Z,100489.90
2018-06-11T23:21:54.571Z,100489.23
2018-06-11T23:24:21.679Z,100484.77
2018-06-11T23:26:48.906Z,100485.03
2018-06-11T23:29:15.997Z,100480.43
2018-06-11T23:31:43.071Z,100475.73
2018-06-11T23:34:10.086Z,100479.06
2018-06-11T23:36:37.202Z,100478.53
2018-06-11T23:39:06.255Z,100478.26
2018-06-11T23:41:33.396Z,100480.11
2018-06-11T23:44:00.501Z,100470.87
2018-06-11T23:46:27.536Z,100476.45
2018-06-11T23:48:54.634Z,100478.56
2018-06-11T23:51:21.810Z,100470.63
2018-06-11T23:53:48.921Z,100478.17
2018-06-11T23:56:15.945Z,100471.00
2018-06-11T23:58:42.994Z,100467.66
